Terminal Aerodrome Forecast
Issued by NWS

Current Version | Previous Version | Text Only | Print | Product List | Glossary On
Versions: 1 2 3 4 5 6 7 8 9 10 11 12 13 14 15 16 17 18 19 20 21 22 23 24 25 26 27 28 29 30
000
FTUS43 KFGF 190538
TAFTVF
TAF
KTVF 190538Z 1906/2006 26008KT P6SM FEW250
     FM190900 23006KT P6SM SCT200
     FM191000 22006KT P6SM BKN200
     FM191500 20007KT P6SM SCT130
     FM191800 23008KT P6SM SCT250
     FM192100 26006KT P6SM SCT250
     FM200400 16004KT P6SM SCT250=

USA.gov is the U.S. government's official web portal to all federal, state and local government web resources and services.